ADDS METAR Data INFO
IDs: Format: Raw Decoded Include TAF

Data at: 0253 UTC 21 Jan 2018

KGEV 210245Z AUTO 28014G21KT 10SM CLR 08/03 A3017 RMK AO2 T00770026
KGEV 210225Z AUTO 28013G23KT 10SM CLR 08/03 A3018 RMK AO2 T00800025
KGEV 210205Z AUTO 28014G20KT 10SM CLR 08/03 A3017 RMK AO2 T00830026
KGEV 210145Z AUTO 30012G24KT 10SM CLR 08/03 A3017 RMK AO2 T00820025
KGEV 210125Z AUTO 26013G24KT 10SM CLR 08/02 A3018 RMK AO2 T00760024
KGEV 210105Z AUTO 27010G20KT 10SM SCT031 08/03 A3018 RMK AO2 T00790025
KGEV 210045Z AUTO 27013G22KT 10SM BKN031 08/03 A3018 RMK AO2 T00800025
KGEV 210025Z AUTO 28011G20KT 10SM SCT029 08/03 A3018 RMK AO2 T00790026
KGEV 210005Z AUTO 29012G19KT 10SM SCT029 08/03 A3018 RMK AO2 T00780026
KGEV 202345Z AUTO 29014G17KT 10SM BKN029 08/03 A3017 RMK AO2 T00780025
KGEV 202325Z AUTO 27012G16KT 10SM OVC029 08/03 A3017 RMK AO2 T00750025
KGEV 202305Z AUTO 27007KT 250V330 10SM OVC029 08/03 A3017 RMK AO2 T00770025
KGEV 202245Z AUTO 30010G16KT 270V330 10SM OVC029 08/03 A3016 RMK AO2 T00760025
KGEV 202225Z AUTO 30011G17KT 260V330 10SM SCT029 08/03 A3016 RMK AO2 T00790025
KGEV 202205Z AUTO 30004KT 10SM CLR 08/03 A3015 RMK AO2 T00820025
KGEV 202145Z AUTO 26006G19KT 10SM SCT026 09/03 A3015 RMK AO2 T00850025
KGEV 202125Z AUTO 28004KT 10SM BKN026 09/03 A3014 RMK AO2 T00850025
KGEV 202105Z AUTO 34003G19KT 10SM OVC026 09/02 A3014 RMK AO2 T00890024
KGEV 202045Z AUTO 00000KT 10SM BKN026 09/03 A3013 RMK AO2 T00890025
KGEV 202025Z AUTO 26004G16KT 10SM SCT026 09/02 A3013 RMK AO2 T00860024
KGEV 202005Z AUTO 32015G24KT 280V350 10SM SCT026 08/03 A3012 RMK AO2 T00840025
KGEV 201945Z AUTO 30004KT 10SM SCT026 09/02 A3012 RMK AO2 T00870023
KGEV 201925Z AUTO 18003KT 10SM CLR 09/03 A3011 RMK AO2 T00940025
KGEV 201905Z AUTO 28006G19KT 10SM CLR 09/02 A3011 RMK AO2 T00900020
KGEV 201845Z AUTO 28011G25KT 220V340 10SM CLR 09/02 A3011 RMK AO2 T00900018
KGEV 201825Z AUTO 32006G21KT 10SM CLR 09/02 A3011 RMK AO2 T00880019
KGEV 201805Z AUTO 31003G22KT 10SM CLR 09/02 A3011 RMK AO2 T00860017
KGEV 201745Z AUTO 31011G24KT 260V040 10SM CLR 08/01 A3012 RMK AO2 T00820014
KGEV 201725Z AUTO 31009G27KT 190V040 10SM CLR 08/01 A3013 RMK AO2 T00770012
KGEV 201705Z AUTO 27007G19KT 200V340 10SM CLR 08/01 A3014 RMK AO2 T00800013
KGEV 201645Z AUTO 31009G18KT 280V040 10SM CLR 07/01 A3014 RMK AO2 T00730010
KGEV 201625Z AUTO 33018G29KT 10SM CLR 07/01 A3014 RMK AO2 T00680010
KGEV 201605Z AUTO 28016G31KT 260V350 10SM CLR 06/01 A3015 RMK AO2 T00590008
KGEV 201545Z AUTO 31014G36KT 10SM SCT018 05/01 A3015 RMK AO2 T00500007
KGEV 201525Z AUTO 30015G23KT 260V330 10SM OVC016 04/00 A3015 RMK AO2 T00430004
KGEV 201505Z AUTO 30021G35KT 260V320 10SM BKN018 04/00 A3015 RMK AO2 T00400000
KGEV 201445Z AUTO 31017G32KT 280V340 10SM SCT018 04/00 A3015 RMK AO2 T00371001
KGEV 201425Z AUTO 30018G37KT 10SM SCT018 03/00 A3013 RMK AO2 T00331004
KGEV 201405Z AUTO 30015G29KT 10SM SCT018 03/M01 A3014 RMK AO2 T00301006
KGEV 201345Z AUTO 29019G33KT 10SM BKN016 03/M01 A3013 RMK AO2 T00281008
KGEV 201325Z AUTO 29009G34KT 220V360 10SM OVC016 02/M01 A3013 RMK AO2 T00211010
KGEV 201305Z AUTO 27006G23KT 10SM BKN016 02/M01 A3013 RMK AO2 T00161012
KGEV 201245Z AUTO 27018G26KT 10SM SCT016 01/M02 A3012 RMK AO2 T00121022
KGEV 201225Z AUTO 29014G27KT 270V330 10SM SCT016 01/M02 A3012 RMK AO2 T00091021
KGEV 201205Z AUTO 28017G29KT 220V300 10SM SCT016 01/M02 A3011 RMK AO2 T00081022
KGEV 201145Z AUTO 27018G32KT 10SM CLR 01/M02 A3011 RMK AO2 T00091025
KGEV 201125Z AUTO 29020G37KT 250V320 10SM CLR 01/M03 A3010 RMK AO2 T00101030
KGEV 201105Z AUTO 28029G40KT 10SM CLR 01/M04 A3010 RMK AO2 T00061039
KGEV 201045Z AUTO 28020G32KT 10SM CLR 01/M06 A3010 RMK AO2 T00101057
KGEV 201025Z AUTO 27021G30KT 10SM CLR 01/M07 A3010 RMK AO2 T00071067
KGEV 201005Z AUTO 28021G28KT 10SM CLR 01/M07 A3010 RMK AO2 T00071073
KGEV 200945Z AUTO 28024G29KT 10SM CLR 01/M08 A3010 RMK AO2 T00111083
KGEV 200925Z AUTO 28019G25KT 10SM CLR 01/M10 A3009 RMK AO2 T00121104
KGEV 200905Z AUTO 28022G28KT 10SM CLR 01/M12 A3010 RMK AO2 T00111122
KGEV 200845Z AUTO 29022G29KT 10SM CLR 02/M14 A3009 RMK AO2 T00151145
KGEV 200825Z AUTO 27012G16KT 10SM CLR 02/M18 A3010 RMK AO2 T00211182
KGEV 200805Z AUTO 28015G22KT 10SM CLR 03/M20 A3009 RMK AO2 T00261197
KGEV 200745Z AUTO 28021G27KT 10SM CLR 03/M22 A3009 RMK AO2 T00311219
KGEV 200725Z AUTO 28015G22KT 10SM CLR 03/M24 A3009 RMK AO2 T00341241
KGEV 200705Z AUTO 28014G22KT 10SM CLR 03/M23 A3009 RMK AO2 T00311234
KGEV 200645Z AUTO 27012G18KT 10SM CLR 03/M23 A3009 RMK AO2 T00311232
KGEV 200625Z AUTO 27011G16KT 10SM CLR 03/M24 A3009 RMK AO2 T00331244
KGEV 200605Z AUTO 00000KT 10SM CLR 03/M24 A3010 RMK AO2 T00251240
KGEV 200545Z AUTO 00000KT 10SM CLR 02/M25 A3010 RMK AO2 T00211248
KGEV 200525Z AUTO 25003KT 10SM CLR 03/M24 A3010 RMK AO2 T00291240
KGEV 200505Z AUTO 28014KT 10SM CLR 03/M25 A3010 RMK AO2 T00341254
KGEV 200445Z AUTO 27008KT 10SM CLR 03/M25 A3010 RMK AO2 T00311254
KGEV 200425Z AUTO 27004KT 10SM CLR 03/M27 A3010 RMK AO2 T00341271
KGEV 200405Z AUTO 27003KT 10SM CLR 03/M26 A3010 RMK AO2 T00321264
KGEV 200345Z AUTO 24003KT 10SM CLR 03/M26 A3011 RMK AO2 T00311263
KGEV 200325Z AUTO 24003KT 10SM CLR 03/M26 A3011 RMK AO2 T00341263
KGEV 200305Z AUTO 27011KT 10SM CLR 04/M26 A3011 RMK AO2 T00351264
KGEV 200245Z AUTO 26009G14KT 10SM CLR 03/M26 A3011 RMK AO2 T00321259
KGEV 200225Z AUTO 27007KT 10SM CLR 03/M26 A3011 RMK AO2 T00311260
KGEV 200205Z AUTO 28011KT 10SM CLR 03/M24 A3011 RMK AO2 T00261243
KGEV 200145Z AUTO 27007KT 10SM CLR 03/M25 A3011 RMK AO2 T00301255
KGEV 200125Z AUTO 25003KT 10SM CLR 02/M23 A3011 RMK AO2 T00161232
KGEV 200105Z AUTO 00000KT 10SM CLR 03/M25 A3011 RMK AO2 T00251252
KGEV 200045Z AUTO 00000KT 10SM CLR 03/M26 A3011 RMK AO2 T00341263
KGEV 200025Z AUTO 28003KT 10SM CLR 03/M23 A3010 RMK AO2 T00261235
KGEV 200005Z AUTO 28008KT 10SM CLR 03/M23 A3010 RMK AO2 T00291234
KGEV 192345Z AUTO 28010KT 10SM CLR 03/M25 A3010 RMK AO2 T00341251
KGEV 192325Z AUTO 28011KT 10SM CLR 04/M24 A3010 RMK AO2 T00351239
KGEV 192305Z AUTO 27010KT 10SM CLR 04/M24 A3010 RMK AO2 T00371236
KGEV 192245Z AUTO 27011KT 10SM CLR 04/M24 A3010 RMK AO2 T00411237
KGEV 192225Z AUTO 27012KT 10SM CLR 05/M24 A3010 RMK AO2 T00461236
KGEV 192205Z AUTO 27014KT 10SM CLR 05/M24 A3010 RMK AO2 T00521239
KGEV 192145Z AUTO 28011G18KT 10SM CLR 06/M24 A3011 RMK AO2 T00551238
KGEV 192125Z AUTO 29012G20KT 10SM CLR 06/M24 A3011 RMK AO2 T00561237
KGEV 192105Z AUTO 28009G18KT 10SM CLR 06/M24 A3011 RMK AO2 T00581245
KGEV 192045Z AUTO 27011G20KT 10SM CLR 06/M25 A3011 RMK AO2 T00611253
KGEV 192025Z AUTO 29013G17KT 10SM CLR 06/M24 A3011 RMK AO2 T00601238
KGEV 192005Z AUTO 28015G20KT 10SM CLR 06/M23 A3011 RMK AO2 T00581228
KGEV 191945Z AUTO 29011G22KT 10SM CLR 06/M23 A3011 RMK AO2 T00571230
KGEV 191925Z AUTO 29016G23KT 10SM CLR 05/M22 A3011 RMK AO2 T00531225
KGEV 191905Z AUTO 28014G19KT 10SM CLR 05/M21 A3011 RMK AO2 T00541213
KGEV 191845Z AUTO 28012G22KT 240V300 10SM CLR 05/M21 A3012 RMK AO2 T00501213
KGEV 191825Z AUTO 27009G17KT 10SM CLR 05/M21 A3013 RMK AO2 T00461213
KGEV 191805Z AUTO 27009G19KT 230V300 10SM CLR 04/M23 A3013 RMK AO2 T00441228
KGEV 191745Z AUTO 29012G26KT 10SM CLR 04/M23 A3014 RMK AO2 T00431231
KGEV 191725Z AUTO 28016G30KT 10SM CLR 04/M24 A3014 RMK AO2 T00421240
KGEV 191705Z AUTO 29018G24KT 10SM CLR 04/M24 A3015 RMK AO2 T00411238
KGEV 191645Z AUTO 28016G25KT 10SM CLR 04/M24 A3016 RMK AO2 T00391240
KGEV 191625Z AUTO 30013G22KT 280V350 10SM CLR 04/M23 A3016 RMK AO2 T00381233
KGEV 191605Z AUTO 28013G24KT 270V330 10SM CLR 04/M24 A3016 RMK AO2 T00361237
KGEV 191545Z AUTO 26016G21KT 10SM CLR 03/M25 A3016 RMK AO2 T00321252
KGEV 191525Z AUTO 30010G22KT 260V320 10SM CLR 02/M25 A3016 RMK AO2 T00231248
KGEV 191505Z AUTO 31010G20KT 270V010 10SM CLR 02/M24 A3016 RMK AO2 T00151239